sensor_id;sensor_type;location;lat;lon;timestamp;P1;durP1;ratioP1;P2;durP2;ratioP2
49860;SDS011;35761;48.826;9.238;2023-08-24T00:00:49;9.35;;;4.15;;
49860;SDS011;35761;48.826;9.238;2023-08-24T00:03:15;9.98;;;4.05;;
49860;SDS011;35761;48.826;9.238;2023-08-24T00:05:40;9.95;;;4.28;;
49860;SDS011;35761;48.826;9.238;2023-08-24T00:08:08;8.38;;;4.15;;
49860;SDS011;35761;48.826;9.238;2023-08-24T00:10:34;8.85;;;3.92;;
49860;SDS011;35761;48.826;9.238;2023-08-24T00:13:00;11.75;;;4.65;;
49860;SDS011;35761;48.826;9.238;2023-08-24T00:15:26;10.43;;;4.72;;
49860;SDS011;35761;48.826;9.238;2023-08-24T00:17:51;7.00;;;5.15;;
49860;SDS011;35761;48.826;9.238;2023-08-24T00:20:17;7.50;;;4.72;;
49860;SDS011;35761;48.826;9.238;2023-08-24T00:22:43;8.60;;;5.32;;
49860;SDS011;35761;48.826;9.238;2023-08-24T00:25:08;11.65;;;4.43;;
49860;SDS011;35761;48.826;9.238;2023-08-24T00:27:34;7.80;;;4.40;;
49860;SDS011;35761;48.826;9.238;2023-08-24T00:30:02;10.18;;;5.45;;
49860;SDS011;35761;48.826;9.238;2023-08-24T00:32:29;9.35;;;4.35;;
49860;SDS011;35761;48.826;9.238;2023-08-24T00:34:55;8.82;;;4.05;;
49860;SDS011;35761;48.826;9.238;2023-08-24T00:37:21;15.35;;;4.10;;
49860;SDS011;35761;48.826;9.238;2023-08-24T00:39:46;7.97;;;3.97;;
49860;SDS011;35761;48.826;9.238;2023-08-24T00:42:12;8.25;;;3.95;;
49860;SDS011;35761;48.826;9.238;2023-08-24T00:44:40;10.65;;;4.65;;
49860;SDS011;35761;48.826;9.238;2023-08-24T00:47:06;11.07;;;4.28;;
49860;SDS011;35761;48.826;9.238;2023-08-24T00:49:33;8.98;;;3.72;;
49860;SDS011;35761;48.826;9.238;2023-08-24T00:51:59;9.40;;;3.67;;
49860;SDS011;35761;48.826;9.238;2023-08-24T00:54:25;11.15;;;4.22;;
49860;SDS011;35761;48.826;9.238;2023-08-24T00:56:51;11.20;;;4.18;;
49860;SDS011;35761;48.826;9.238;2023-08-24T00:59:18;7.75;;;5.38;;
49860;SDS011;35761;48.826;9.238;2023-08-24T01:01:44;15.57;;;5.57;;
49860;SDS011;35761;48.826;9.238;2023-08-24T01:04:11;10.50;;;4.68;;
49860;SDS011;35761;48.826;9.238;2023-08-24T01:06:36;8.40;;;5.55;;
49860;SDS011;35761;48.826;9.238;2023-08-24T01:09:02;11.43;;;4.85;;
49860;SDS011;35761;48.826;9.238;2023-08-24T01:17:01;10.98;;;5.00;;
49860;SDS011;35761;48.826;9.238;2023-08-24T01:22:07;9.55;;;5.03;;
49860;SDS011;35761;48.826;9.238;2023-08-24T01:27:33;13.57;;;4.50;;
49860;SDS011;35761;48.826;9.238;2023-08-24T01:30:00;9.68;;;4.32;;
49860;SDS011;35761;48.826;9.238;2023-08-24T01:32:30;7.63;;;4.40;;
49860;SDS011;35761;48.826;9.238;2023-08-24T01:34:57;11.13;;;4.82;;
49860;SDS011;35761;48.826;9.238;2023-08-24T01:37:23;11.93;;;4.53;;
49860;SDS011;35761;48.826;9.238;2023-08-24T01:40:12;11.10;;;4.88;;
49860;SDS011;35761;48.826;9.238;2023-08-24T01:45:29;11.00;;;4.95;;
49860;SDS011;35761;48.826;9.238;2023-08-24T01:47:55;12.02;;;5.20;;
49860;SDS011;35761;48.826;9.238;2023-08-24T01:50:22;12.65;;;5.13;;
49860;SDS011;35761;48.826;9.238;2023-08-24T01:52:48;15.68;;;5.22;;
49860;SDS011;35761;48.826;9.238;2023-08-24T01:55:14;14.52;;;5.35;;
49860;SDS011;35761;48.826;9.238;2023-08-24T01:57:43;11.70;;;5.60;;
49860;SDS011;35761;48.826;9.238;2023-08-24T02:00:08;11.10;;;5.43;;
49860;SDS011;35761;48.826;9.238;2023-08-24T02:02:41;12.88;;;5.13;;
49860;SDS011;35761;48.826;9.238;2023-08-24T02:05:07;21.10;;;5.68;;
49860;SDS011;35761;48.826;9.238;2023-08-24T02:07:33;11.73;;;5.90;;
49860;SDS011;35761;48.826;9.238;2023-08-24T02:09:58;13.35;;;5.30;;
49860;SDS011;35761;48.826;9.238;2023-08-24T02:12:24;9.55;;;4.93;;
49860;SDS011;35761;48.826;9.238;2023-08-24T02:14:49;7.90;;;5.22;;
49860;SDS011;35761;48.826;9.238;2023-08-24T02:17:15;10.90;;;4.82;;
49860;SDS011;35761;48.826;9.238;2023-08-24T02:19:40;9.93;;;5.82;;
49860;SDS011;35761;48.826;9.238;2023-08-24T02:22:07;15.57;;;8.77;;
49860;SDS011;35761;48.826;9.238;2023-08-24T02:24:33;20.58;;;11.50;;
49860;SDS011;35761;48.826;9.238;2023-08-24T02:26:58;26.23;;;13.98;;
49860;SDS011;35761;48.826;9.238;2023-08-24T02:29:24;13.70;;;8.60;;
49860;SDS011;35761;48.826;9.238;2023-08-24T02:31:50;8.30;;;5.30;;
49860;SDS011;35761;48.826;9.238;2023-08-24T02:34:16;11.30;;;5.35;;
49860;SDS011;35761;48.826;9.238;2023-08-24T02:36:43;8.98;;;4.82;;
49860;SDS011;35761;48.826;9.238;2023-08-24T02:39:09;20.52;;;5.00;;
49860;SDS011;35761;48.826;9.238;2023-08-24T02:41:35;16.55;;;5.07;;
49860;SDS011;35761;48.826;9.238;2023-08-24T02:44:01;11.65;;;4.90;;
49860;SDS011;35761;48.826;9.238;2023-08-24T02:46:27;12.23;;;5.00;;
49860;SDS011;35761;48.826;9.238;2023-08-24T02:48:52;10.25;;;5.55;;
49860;SDS011;35761;48.826;9.238;2023-08-24T02:51:20;15.02;;;4.68;;
49860;SDS011;35761;48.826;9.238;2023-08-24T02:53:48;8.57;;;4.80;;
49860;SDS011;35761;48.826;9.238;2023-08-24T02:56:14;8.30;;;4.70;;
49860;SDS011;35761;48.826;9.238;2023-08-24T02:58:40;14.18;;;5.10;;
49860;SDS011;35761;48.826;9.238;2023-08-24T03:01:06;9.15;;;5.20;;
49860;SDS011;35761;48.826;9.238;2023-08-24T03:03:34;12.63;;;8.07;;
49860;SDS011;35761;48.826;9.238;2023-08-24T03:06:01;13.48;;;6.93;;
49860;SDS011;35761;48.826;9.238;2023-08-24T03:08:31;16.25;;;7.75;;
49860;SDS011;35761;48.826;9.238;2023-08-24T03:10:58;10.65;;;4.88;;
49860;SDS011;35761;48.826;9.238;2023-08-24T03:13:28;17.08;;;5.40;;
49860;SDS011;35761;48.826;9.238;2023-08-24T03:15:54;18.13;;;6.82;;
49860;SDS011;35761;48.826;9.238;2023-08-24T03:18:21;10.98;;;4.95;;
49860;SDS011;35761;48.826;9.238;2023-08-24T03:20:47;17.63;;;4.72;;
49860;SDS011;35761;48.826;9.238;2023-08-24T03:23:15;7.95;;;4.43;;
49860;SDS011;35761;48.826;9.238;2023-08-24T03:25:41;9.60;;;4.82;;
49860;SDS011;35761;48.826;9.238;2023-08-24T03:28:10;8.05;;;4.30;;
49860;SDS011;35761;48.826;9.238;2023-08-24T03:30:36;10.02;;;4.68;;
49860;SDS011;35761;48.826;9.238;2023-08-24T03:33:03;11.02;;;4.47;;
49860;SDS011;35761;48.826;9.238;2023-08-24T03:35:32;10.45;;;4.18;;
49860;SDS011;35761;48.826;9.238;2023-08-24T03:37:58;10.35;;;4.57;;
49860;SDS011;35761;48.826;9.238;2023-08-24T03:40:25;11.18;;;4.70;;
49860;SDS011;35761;48.826;9.238;2023-08-24T03:42:53;10.38;;;4.80;;
49860;SDS011;35761;48.826;9.238;2023-08-24T03:45:19;10.75;;;4.13;;
49860;SDS011;35761;48.826;9.238;2023-08-24T03:47:44;6.45;;;4.35;;
49860;SDS011;35761;48.826;9.238;2023-08-24T03:50:10;8.43;;;4.22;;
49860;SDS011;35761;48.826;9.238;2023-08-24T03:52:36;9.27;;;4.00;;
49860;SDS011;35761;48.826;9.238;2023-08-24T03:55:01;10.80;;;8.07;;
49860;SDS011;35761;48.826;9.238;2023-08-24T03:57:27;12.57;;;5.32;;
49860;SDS011;35761;48.826;9.238;2023-08-24T03:59:52;11.05;;;6.70;;
49860;SDS011;35761;48.826;9.238;2023-08-24T04:02:18;9.82;;;6.22;;
49860;SDS011;35761;48.826;9.238;2023-08-24T04:04:44;8.20;;;4.40;;
49860;SDS011;35761;48.826;9.238;2023-08-24T04:07:09;11.45;;;4.57;;
49860;SDS011;35761;48.826;9.238;2023-08-24T04:09:35;9.48;;;4.32;;
49860;SDS011;35761;48.826;9.238;2023-08-24T04:12:00;6.40;;;3.85;;
49860;SDS011;35761;48.826;9.238;2023-08-24T04:14:26;8.82;;;4.40;;
49860;SDS011;35761;48.826;9.238;2023-08-24T04:16:51;6.60;;;4.38;;
49860;SDS011;35761;48.826;9.238;2023-08-24T04:19:17;8.80;;;4.30;;
49860;SDS011;35761;48.826;9.238;2023-08-24T04:21:43;8.38;;;4.38;;
49860;SDS011;35761;48.826;9.238;2023-08-24T04:24:08;9.45;;;4.43;;
49860;SDS011;35761;48.826;9.238;2023-08-24T04:26:34;8.57;;;4.78;;
49860;SDS011;35761;48.826;9.238;2023-08-24T04:28:59;9.52;;;4.35;;
49860;SDS011;35761;48.826;9.238;2023-08-24T04:31:24;6.95;;;4.30;;
49860;SDS011;35761;48.826;9.238;2023-08-24T04:33:50;7.78;;;4.07;;
49860;SDS011;35761;48.826;9.238;2023-08-24T04:36:15;9.80;;;4.50;;
49860;SDS011;35761;48.826;9.238;2023-08-24T04:38:43;8.20;;;4.32;;
49860;SDS011;35761;48.826;9.238;2023-08-24T04:41:09;10.60;;;4.53;;
49860;SDS011;35761;48.826;9.238;2023-08-24T04:43:35;14.75;;;4.78;;
49860;SDS011;35761;48.826;9.238;2023-08-24T04:46:01;10.75;;;4.57;;
49860;SDS011;35761;48.826;9.238;2023-08-24T04:48:27;8.75;;;4.80;;
49860;SDS011;35761;48.826;9.238;2023-08-24T04:50:52;6.00;;;4.82;;
49860;SDS011;35761;48.826;9.238;2023-08-24T04:53:19;8.48;;;4.32;;
49860;SDS011;35761;48.826;9.238;2023-08-24T04:55:44;10.63;;;5.18;;
49860;SDS011;35761;48.826;9.238;2023-08-24T04:58:10;10.55;;;4.82;;
49860;SDS011;35761;48.826;9.238;2023-08-24T05:00:37;10.40;;;4.70;;
49860;SDS011;35761;48.826;9.238;2023-08-24T05:03:03;9.32;;;4.75;;
49860;SDS011;35761;48.826;9.238;2023-08-24T05:05:29;9.73;;;5.05;;
49860;SDS011;35761;48.826;9.238;2023-08-24T05:07:56;11.70;;;5.32;;
49860;SDS011;35761;48.826;9.238;2023-08-24T05:10:22;13.30;;;5.45;;
49860;SDS011;35761;48.826;9.238;2023-08-24T05:12:48;14.60;;;5.60;;
49860;SDS011;35761;48.826;9.238;2023-08-24T05:15:13;10.30;;;5.15;;
49860;SDS011;35761;48.826;9.238;2023-08-24T05:17:39;12.57;;;5.65;;
49860;SDS011;35761;48.826;9.238;2023-08-24T05:20:06;12.23;;;5.40;;
49860;SDS011;35761;48.826;9.238;2023-08-24T05:22:33;11.45;;;5.05;;
49860;SDS011;35761;48.826;9.238;2023-08-24T05:24:58;9.70;;;5.05;;
49860;SDS011;35761;48.826;9.238;2023-08-24T05:27:24;13.57;;;5.72;;
49860;SDS011;35761;48.826;9.238;2023-08-24T05:29:49;9.20;;;5.03;;
49860;SDS011;35761;48.826;9.238;2023-08-24T05:32:15;9.88;;;5.07;;
49860;SDS011;35761;48.826;9.238;2023-08-24T05:34:40;14.15;;;5.90;;
49860;SDS011;35761;48.826;9.238;2023-08-24T05:37:05;9.80;;;5.38;;
49860;SDS011;35761;48.826;9.238;2023-08-24T05:39:31;8.75;;;5.15;;
49860;SDS011;35761;48.826;9.238;2023-08-24T05:41:56;9.18;;;5.32;;
49860;SDS011;35761;48.826;9.238;2023-08-24T05:44:22;9.05;;;4.90;;
49860;SDS011;35761;48.826;9.238;2023-08-24T05:46:47;8.30;;;4.85;;
49860;SDS011;35761;48.826;9.238;2023-08-24T05:49:13;14.98;;;5.50;;
49860;SDS011;35761;48.826;9.238;2023-08-24T05:51:39;8.55;;;5.07;;
49860;SDS011;35761;48.826;9.238;2023-08-24T05:54:05;23.95;;;15.75;;
49860;SDS011;35761;48.826;9.238;2023-08-24T05:56:30;30.73;;;19.00;;
49860;SDS011;35761;48.826;9.238;2023-08-24T05:58:57;10.43;;;5.63;;
49860;SDS011;35761;48.826;9.238;2023-08-24T06:01:23;17.83;;;5.28;;
49860;SDS011;35761;48.826;9.238;2023-08-24T06:03:48;8.98;;;5.20;;
49860;SDS011;35761;48.826;9.238;2023-08-24T06:06:14;10.48;;;5.00;;
49860;SDS011;35761;48.826;9.238;2023-08-24T06:08:40;17.13;;;5.35;;
49860;SDS011;35761;48.826;9.238;2023-08-24T06:11:05;10.13;;;5.10;;
49860;SDS011;35761;48.826;9.238;2023-08-24T06:13:31;10.50;;;5.28;;
49860;SDS011;35761;48.826;9.238;2023-08-24T06:15:57;8.10;;;4.97;;
49860;SDS011;35761;48.826;9.238;2023-08-24T06:18:22;11.45;;;5.32;;
49860;SDS011;35761;48.826;9.238;2023-08-24T06:20:48;7.88;;;4.90;;
49860;SDS011;35761;48.826;9.238;2023-08-24T06:23:16;9.35;;;5.13;;
49860;SDS011;35761;48.826;9.238;2023-08-24T06:25:43;9.13;;;4.53;;
49860;SDS011;35761;48.826;9.238;2023-08-24T06:28:09;14.25;;;4.93;;
49860;SDS011;35761;48.826;9.238;2023-08-24T06:30:41;12.07;;;4.97;;
49860;SDS011;35761;48.826;9.238;2023-08-24T06:33:08;10.88;;;5.60;;
49860;SDS011;35761;48.826;9.238;2023-08-24T06:35:36;11.23;;;5.55;;
49860;SDS011;35761;48.826;9.238;2023-08-24T06:38:02;12.05;;;4.95;;
49860;SDS011;35761;48.826;9.238;2023-08-24T06:40:28;10.57;;;5.10;;
49860;SDS011;35761;48.826;9.238;2023-08-24T06:42:54;17.05;;;6.13;;
49860;SDS011;35761;48.826;9.238;2023-08-24T06:45:20;10.30;;;5.28;;
49860;SDS011;35761;48.826;9.238;2023-08-24T06:47:46;11.25;;;5.45;;
49860;SDS011;35761;48.826;9.238;2023-08-24T06:50:11;11.80;;;5.30;;
49860;SDS011;35761;48.826;9.238;2023-08-24T06:52:37;15.45;;;5.80;;
49860;SDS011;35761;48.826;9.238;2023-08-24T06:55:02;19.33;;;5.10;;
49860;SDS011;35761;48.826;9.238;2023-08-24T06:57:29;14.27;;;5.25;;
49860;SDS011;35761;48.826;9.238;2023-08-24T06:59:54;14.40;;;6.00;;
49860;SDS011;35761;48.826;9.238;2023-08-24T07:02:20;12.77;;;5.80;;
49860;SDS011;35761;48.826;9.238;2023-08-24T07:04:45;14.68;;;5.10;;
49860;SDS011;35761;48.826;9.238;2023-08-24T07:07:11;9.75;;;4.47;;
49860;SDS011;35761;48.826;9.238;2023-08-24T07:09:36;10.88;;;5.20;;
49860;SDS011;35761;48.826;9.238;2023-08-24T07:12:02;19.05;;;5.03;;
49860;SDS011;35761;48.826;9.238;2023-08-24T07:14:31;10.82;;;4.78;;
49860;SDS011;35761;48.826;9.238;2023-08-24T07:16:57;11.35;;;4.75;;
49860;SDS011;35761;48.826;9.238;2023-08-24T07:19:22;9.48;;;5.10;;
49860;SDS011;35761;48.826;9.238;2023-08-24T07:21:48;8.68;;;5.10;;
49860;SDS011;35761;48.826;9.238;2023-08-24T07:24:13;8.68;;;4.68;;
49860;SDS011;35761;48.826;9.238;2023-08-24T07:26:40;15.13;;;4.65;;
49860;SDS011;35761;48.826;9.238;2023-08-24T07:29:06;11.02;;;4.13;;
49860;SDS011;35761;48.826;9.238;2023-08-24T07:31:31;12.75;;;6.15;;
49860;SDS011;35761;48.826;9.238;2023-08-24T07:33:57;7.68;;;5.30;;
49860;SDS011;35761;48.826;9.238;2023-08-24T07:36:23;14.00;;;4.82;;
49860;SDS011;35761;48.826;9.238;2023-08-24T07:38:49;16.50;;;4.32;;
49860;SDS011;35761;48.826;9.238;2023-08-24T07:41:15;11.18;;;4.90;;
49860;SDS011;35761;48.826;9.238;2023-08-24T07:43:42;19.20;;;4.53;;
49860;SDS011;35761;48.826;9.238;2023-08-24T07:46:08;9.18;;;4.03;;
49860;SDS011;35761;48.826;9.238;2023-08-24T07:48:34;12.70;;;4.07;;
49860;SDS011;35761;48.826;9.238;2023-08-24T07:50:59;11.35;;;4.40;;
49860;SDS011;35761;48.826;9.238;2023-08-24T07:53:25;7.30;;;3.85;;
49860;SDS011;35761;48.826;9.238;2023-08-24T07:55:50;8.60;;;3.72;;
49860;SDS011;35761;48.826;9.238;2023-08-24T07:58:18;11.32;;;3.70;;
49860;SDS011;35761;48.826;9.238;2023-08-24T08:00:43;13.10;;;4.03;;
49860;SDS011;35761;48.826;9.238;2023-08-24T08:03:09;14.85;;;3.95;;
49860;SDS011;35761;48.826;9.238;2023-08-24T08:05:34;14.85;;;3.95;;
49860;SDS011;35761;48.826;9.238;2023-08-24T08:08:00;13.80;;;4.50;;
49860;SDS011;35761;48.826;9.238;2023-08-24T08:10:25;15.55;;;5.10;;
49860;SDS011;35761;48.826;9.238;2023-08-24T08:12:51;16.23;;;5.28;;
49860;SDS011;35761;48.826;9.238;2023-08-24T08:15:16;16.40;;;4.22;;
49860;SDS011;35761;48.826;9.238;2023-08-24T08:17:42;7.32;;;3.60;;
49860;SDS011;35761;48.826;9.238;2023-08-24T08:20:07;22.70;;;5.25;;
49860;SDS011;35761;48.826;9.238;2023-08-24T08:22:33;16.77;;;4.97;;
49860;SDS011;35761;48.826;9.238;2023-08-24T08:25:03;14.32;;;4.47;;
49860;SDS011;35761;48.826;9.238;2023-08-24T08:27:31;9.48;;;4.03;;
49860;SDS011;35761;48.826;9.238;2023-08-24T08:29:58;12.32;;;3.75;;
49860;SDS011;35761;48.826;9.238;2023-08-24T08:32:23;13.20;;;4.30;;
49860;SDS011;35761;48.826;9.238;2023-08-24T08:34:54;18.02;;;4.57;;
49860;SDS011;35761;48.826;9.238;2023-08-24T08:37:22;13.50;;;3.50;;
49860;SDS011;35761;48.826;9.238;2023-08-24T08:39:47;15.38;;;3.47;;
49860;SDS011;35761;48.826;9.238;2023-08-24T08:42:13;12.05;;;4.00;;
49860;SDS011;35761;48.826;9.238;2023-08-24T08:44:39;21.10;;;5.05;;
49860;SDS011;35761;48.826;9.238;2023-08-24T08:47:06;10.10;;;4.28;;
49860;SDS011;35761;48.826;9.238;2023-08-24T08:49:33;10.07;;;3.63;;
49860;SDS011;35761;48.826;9.238;2023-08-24T08:52:00;8.88;;;4.03;;
49860;SDS011;35761;48.826;9.238;2023-08-24T08:54:26;18.48;;;3.67;;
49860;SDS011;35761;48.826;9.238;2023-08-24T08:56:52;10.60;;;3.92;;
49860;SDS011;35761;48.826;9.238;2023-08-24T08:59:17;14.52;;;3.75;;
49860;SDS011;35761;48.826;9.238;2023-08-24T09:01:43;11.25;;;3.95;;
49860;SDS011;35761;48.826;9.238;2023-08-24T09:04:09;16.70;;;4.15;;
49860;SDS011;35761;48.826;9.238;2023-08-24T09:06:35;13.43;;;3.75;;
49860;SDS011;35761;48.826;9.238;2023-08-24T09:09:00;14.93;;;4.18;;
49860;SDS011;35761;48.826;9.238;2023-08-24T09:11:26;14.43;;;3.58;;
49860;SDS011;35761;48.826;9.238;2023-08-24T09:13:52;12.55;;;4.50;;
49860;SDS011;35761;48.826;9.238;2023-08-24T09:16:17;9.15;;;3.72;;
49860;SDS011;35761;48.826;9.238;2023-08-24T09:18:43;14.60;;;4.22;;
49860;SDS011;35761;48.826;9.238;2023-08-24T09:21:14;14.23;;;4.40;;
49860;SDS011;35761;48.826;9.238;2023-08-24T09:23:44;12.13;;;4.07;;
49860;SDS011;35761;48.826;9.238;2023-08-24T09:26:13;17.98;;;5.35;;
49860;SDS011;35761;48.826;9.238;2023-08-24T09:28:41;10.05;;;4.25;;
49860;SDS011;35761;48.826;9.238;2023-08-24T09:31:07;11.52;;;4.15;;
49860;SDS011;35761;48.826;9.238;2023-08-24T09:33:33;9.35;;;4.40;;
49860;SDS011;35761;48.826;9.238;2023-08-24T09:35:58;12.98;;;3.65;;
49860;SDS011;35761;48.826;9.238;2023-08-24T09:38:28;20.52;;;4.07;;
49860;SDS011;35761;48.826;9.238;2023-08-24T09:40:54;9.13;;;3.60;;
49860;SDS011;35761;48.826;9.238;2023-08-24T09:43:21;14.75;;;3.75;;
49860;SDS011;35761;48.826;9.238;2023-08-24T09:45:51;11.85;;;4.05;;
49860;SDS011;35761;48.826;9.238;2023-08-24T09:48:17;12.60;;;3.92;;
49860;SDS011;35761;48.826;9.238;2023-08-24T09:50:44;9.27;;;3.65;;
49860;SDS011;35761;48.826;9.238;2023-08-24T09:53:15;15.10;;;3.92;;
49860;SDS011;35761;48.826;9.238;2023-08-24T09:56:01;10.38;;;3.90;;
49860;SDS011;35761;48.826;9.238;2023-08-24T09:58:29;14.02;;;4.57;;
49860;SDS011;35761;48.826;9.238;2023-08-24T10:00:56;7.68;;;3.53;;
49860;SDS011;35761;48.826;9.238;2023-08-24T10:03:25;9.90;;;3.80;;
49860;SDS011;35761;48.826;9.238;2023-08-24T10:05:52;8.43;;;3.42;;
49860;SDS011;35761;48.826;9.238;2023-08-24T10:08:24;8.13;;;3.55;;
49860;SDS011;35761;48.826;9.238;2023-08-24T10:10:52;10.82;;;5.30;;
49860;SDS011;35761;48.826;9.238;2023-08-24T10:13:23;8.30;;;4.80;;
49860;SDS011;35761;48.826;9.238;2023-08-24T10:15:55;12.07;;;3.72;;
49860;SDS011;35761;48.826;9.238;2023-08-24T10:18:21;12.27;;;4.18;;
49860;SDS011;35761;48.826;9.238;2023-08-24T10:20:49;9.23;;;3.75;;
49860;SDS011;35761;48.826;9.238;2023-08-24T10:23:17;15.32;;;4.55;;
49860;SDS011;35761;48.826;9.238;2023-08-24T10:25:45;9.43;;;4.93;;
49860;SDS011;35761;48.826;9.238;2023-08-24T10:28:11;8.77;;;4.00;;
49860;SDS011;35761;48.826;9.238;2023-08-24T10:30:38;9.48;;;3.63;;
49860;SDS011;35761;48.826;9.238;2023-08-24T10:33:05;7.55;;;4.13;;
49860;SDS011;35761;48.826;9.238;2023-08-24T10:35:31;8.75;;;3.80;;
49860;SDS011;35761;48.826;9.238;2023-08-24T10:37:58;9.88;;;3.72;;
49860;SDS011;35761;48.826;9.238;2023-08-24T10:40:30;9.43;;;3.65;;
49860;SDS011;35761;48.826;9.238;2023-08-24T10:42:57;6.43;;;3.53;;
49860;SDS011;35761;48.826;9.238;2023-08-24T10:45:24;7.50;;;3.67;;
49860;SDS011;35761;48.826;9.238;2023-08-24T10:47:52;10.05;;;3.60;;
49860;SDS011;35761;48.826;9.238;2023-08-24T10:50:19;12.07;;;3.92;;
49860;SDS011;35761;48.826;9.238;2023-08-24T10:52:45;10.00;;;4.00;;
49860;SDS011;35761;48.826;9.238;2023-08-24T10:55:23;7.60;;;4.13;;
49860;SDS011;35761;48.826;9.238;2023-08-24T10:57:57;8.43;;;4.35;;
49860;SDS011;35761;48.826;9.238;2023-08-24T11:00:25;12.07;;;5.03;;
49860;SDS011;35761;48.826;9.238;2023-08-24T11:02:52;8.20;;;5.10;;
49860;SDS011;35761;48.826;9.238;2023-08-24T11:10:47;11.23;;;4.28;;
49860;SDS011;35761;48.826;9.238;2023-08-24T11:13:15;11.52;;;3.80;;
49860;SDS011;35761;48.826;9.238;2023-08-24T11:15:45;8.90;;;3.78;;
49860;SDS011;35761;48.826;9.238;2023-08-24T11:20:50;7.20;;;3.90;;
49860;SDS011;35761;48.826;9.238;2023-08-24T11:23:20;13.88;;;4.03;;
49860;SDS011;35761;48.826;9.238;2023-08-24T11:25:47;11.20;;;4.47;;
49860;SDS011;35761;48.826;9.238;2023-08-24T11:28:17;8.23;;;4.22;;
49860;SDS011;35761;48.826;9.238;2023-08-24T11:30:44;7.10;;;4.18;;
49860;SDS011;35761;48.826;9.238;2023-08-24T11:33:10;8.50;;;4.47;;
49860;SDS011;35761;48.826;9.238;2023-08-24T11:35:36;13.02;;;4.15;;
49860;SDS011;35761;48.826;9.238;2023-08-24T11:38:02;9.82;;;3.65;;
49860;SDS011;35761;48.826;9.238;2023-08-24T11:40:28;11.55;;;4.05;;
49860;SDS011;35761;48.826;9.238;2023-08-24T11:42:54;8.35;;;4.05;;
49860;SDS011;35761;48.826;9.238;2023-08-24T11:45:20;15.40;;;4.32;;
49860;SDS011;35761;48.826;9.238;2023-08-24T11:47:47;5.40;;;3.88;;
49860;SDS011;35761;48.826;9.238;2023-08-24T11:50:13;6.88;;;3.88;;
49860;SDS011;35761;48.826;9.238;2023-08-24T11:52:42;9.65;;;3.92;;
49860;SDS011;35761;48.826;9.238;2023-08-24T11:55:08;10.93;;;4.90;;
49860;SDS011;35761;48.826;9.238;2023-08-24T11:57:34;7.95;;;4.30;;
49860;SDS011;35761;48.826;9.238;2023-08-24T12:00:01;7.25;;;4.40;;
49860;SDS011;35761;48.826;9.238;2023-08-24T12:02:33;10.38;;;4.47;;
49860;SDS011;35761;48.826;9.238;2023-08-24T12:04:58;11.13;;;4.35;;
49860;SDS011;35761;48.826;9.238;2023-08-24T12:07:24;8.75;;;4.75;;
49860;SDS011;35761;48.826;9.238;2023-08-24T12:09:51;14.13;;;4.40;;
49860;SDS011;35761;48.826;9.238;2023-08-24T12:12:19;11.93;;;4.22;;
49860;SDS011;35761;48.826;9.238;2023-08-24T12:14:49;9.48;;;4.00;;
49860;SDS011;35761;48.826;9.238;2023-08-24T12:17:15;8.73;;;4.20;;
49860;SDS011;35761;48.826;9.238;2023-08-24T12:20:02;6.22;;;3.90;;
49860;SDS011;35761;48.826;9.238;2023-08-24T12:22:32;10.57;;;4.70;;
49860;SDS011;35761;48.826;9.238;2023-08-24T12:24:57;7.35;;;3.67;;
49860;SDS011;35761;48.826;9.238;2023-08-24T12:27:23;9.75;;;3.70;;
49860;SDS011;35761;48.826;9.238;2023-08-24T12:29:51;6.50;;;4.18;;
49860;SDS011;35761;48.826;9.238;2023-08-24T12:32:17;12.55;;;4.45;;
49860;SDS011;35761;48.826;9.238;2023-08-24T12:34:47;11.43;;;3.90;;
49860;SDS011;35761;48.826;9.238;2023-08-24T12:37:12;8.23;;;3.67;;
49860;SDS011;35761;48.826;9.238;2023-08-24T12:39:39;10.35;;;3.58;;
49860;SDS011;35761;48.826;9.238;2023-08-24T12:42:04;7.80;;;3.70;;
49860;SDS011;35761;48.826;9.238;2023-08-24T12:44:31;10.80;;;4.05;;
49860;SDS011;35761;48.826;9.238;2023-08-24T12:46:57;8.48;;;4.03;;
49860;SDS011;35761;48.826;9.238;2023-08-24T12:49:23;15.35;;;4.78;;
49860;SDS011;35761;48.826;9.238;2023-08-24T12:51:49;10.23;;;5.30;;
49860;SDS011;35761;48.826;9.238;2023-08-24T12:54:14;8.63;;;4.28;;
49860;SDS011;35761;48.826;9.238;2023-08-24T12:56:40;11.52;;;4.38;;
49860;SDS011;35761;48.826;9.238;2023-08-24T12:59:08;15.23;;;4.45;;
49860;SDS011;35761;48.826;9.238;2023-08-24T13:01:34;11.20;;;3.70;;
49860;SDS011;35761;48.826;9.238;2023-08-24T13:04:00;12.25;;;4.35;;
49860;SDS011;35761;48.826;9.238;2023-08-24T13:06:25;12.63;;;4.22;;
49860;SDS011;35761;48.826;9.238;2023-08-24T13:08:54;11.10;;;4.05;;
49860;SDS011;35761;48.826;9.238;2023-08-24T13:11:19;10.65;;;4.38;;
49860;SDS011;35761;48.826;9.238;2023-08-24T13:13:45;12.65;;;3.97;;
49860;SDS011;35761;48.826;9.238;2023-08-24T13:16:11;13.43;;;4.30;;
49860;SDS011;35761;48.826;9.238;2023-08-24T13:18:36;11.38;;;4.72;;
49860;SDS011;35761;48.826;9.238;2023-08-24T13:21:02;16.08;;;5.22;;
49860;SDS011;35761;48.826;9.238;2023-08-24T13:23:27;15.05;;;4.35;;
49860;SDS011;35761;48.826;9.238;2023-08-24T13:25:53;12.27;;;3.95;;
49860;SDS011;35761;48.826;9.238;2023-08-24T13:28:20;17.15;;;4.40;;
49860;SDS011;35761;48.826;9.238;2023-08-24T13:30:46;11.00;;;3.67;;
49860;SDS011;35761;48.826;9.238;2023-08-24T13:33:13;19.40;;;4.40;;
49860;SDS011;35761;48.826;9.238;2023-08-24T13:35:40;16.63;;;3.78;;
49860;SDS011;35761;48.826;9.238;2023-08-24T13:38:05;12.40;;;4.05;;
49860;SDS011;35761;48.826;9.238;2023-08-24T13:40:31;14.77;;;4.20;;
49860;SDS011;35761;48.826;9.238;2023-08-24T13:42:57;19.40;;;4.40;;
49860;SDS011;35761;48.826;9.238;2023-08-24T13:45:22;14.05;;;3.95;;
49860;SDS011;35761;48.826;9.238;2023-08-24T13:47:48;17.27;;;4.03;;
49860;SDS011;35761;48.826;9.238;2023-08-24T13:50:16;13.05;;;3.55;;
49860;SDS011;35761;48.826;9.238;2023-08-24T13:52:41;15.70;;;3.65;;
49860;SDS011;35761;48.826;9.238;2023-08-24T13:55:07;16.95;;;3.78;;
49860;SDS011;35761;48.826;9.238;2023-08-24T13:57:33;12.27;;;4.15;;
49860;SDS011;35761;48.826;9.238;2023-08-24T13:59:58;13.25;;;4.20;;
49860;SDS011;35761;48.826;9.238;2023-08-24T14:02:24;23.15;;;4.15;;
49860;SDS011;35761;48.826;9.238;2023-08-24T14:04:50;20.48;;;4.32;;
49860;SDS011;35761;48.826;9.238;2023-08-24T14:07:16;13.63;;;4.05;;
49860;SDS011;35761;48.826;9.238;2023-08-24T14:09:41;22.13;;;4.20;;
49860;SDS011;35761;48.826;9.238;2023-08-24T14:12:07;14.35;;;3.90;;
49860;SDS011;35761;48.826;9.238;2023-08-24T14:14:32;19.60;;;3.80;;
49860;SDS011;35761;48.826;9.238;2023-08-24T14:16:57;15.02;;;3.70;;
49860;SDS011;35761;48.826;9.238;2023-08-24T14:19:23;17.63;;;4.07;;
49860;SDS011;35761;48.826;9.238;2023-08-24T14:21:49;17.60;;;3.75;;
49860;SDS011;35761;48.826;9.238;2023-08-24T14:24:14;20.63;;;5.13;;
49860;SDS011;35761;48.826;9.238;2023-08-24T14:26:40;19.15;;;8.95;;
49860;SDS011;35761;48.826;9.238;2023-08-24T14:29:10;13.35;;;4.15;;
49860;SDS011;35761;48.826;9.238;2023-08-24T14:31:36;13.73;;;4.43;;
49860;SDS011;35761;48.826;9.238;2023-08-24T14:34:01;14.63;;;3.58;;
49860;SDS011;35761;48.826;9.238;2023-08-24T14:36:28;17.02;;;3.85;;
49860;SDS011;35761;48.826;9.238;2023-08-24T14:38:53;18.33;;;3.83;;
49860;SDS011;35761;48.826;9.238;2023-08-24T14:41:19;14.35;;;4.18;;
49860;SDS011;35761;48.826;9.238;2023-08-24T14:43:44;15.27;;;4.15;;
49860;SDS011;35761;48.826;9.238;2023-08-24T14:46:11;14.05;;;4.30;;
49860;SDS011;35761;48.826;9.238;2023-08-24T14:48:36;14.60;;;4.22;;
49860;SDS011;35761;48.826;9.238;2023-08-24T14:51:02;11.65;;;4.18;;
49860;SDS011;35761;48.826;9.238;2023-08-24T14:53:27;15.25;;;5.75;;
49860;SDS011;35761;48.826;9.238;2023-08-24T14:55:54;20.00;;;4.10;;